This is the latest recevied weather packets stored in our database for station/object SP1BMW-13. If no packets are shown the sender has not sent any weather packets the latest 10 day(s).
| Time | Temp. | Humidity | Pressure | Rain* | Wind** | Luminosity | Snow |
|---|---|---|---|---|---|---|---|
| 1777635022 | 22.22° C | 39% | 1026.8 hPa | 0 mm | 1.34 m/s, 293° | 683 W/m² | - |
| 1777634963 | 21.67° C | 39% | 1026.9 hPa | 0 mm | 1.79 m/s, 337° | 683 W/m² | - |
| 1777634902 | 21.67° C | 39% | 1027 hPa | 0 mm | 0.89 m/s, 130° | 684 W/m² | - |
| 1777634842 | 21.67° C | 39% | 1026.9 hPa | 0 mm | 0 m/s | 685 W/m² | - |
| 1777634783 | 21.67° C | 40% | 1027.1 hPa | 0 mm | 0.45 m/s, 33° | 687 W/m² | - |
| 1777634722 | 21.67° C | 41% | 1027 hPa | 0 mm | 0.45 m/s, 296° | 686 W/m² | - |
| 1777634662 | 21.67° C | 40% | 1026.8 hPa | 0 mm | 1.79 m/s, 334° | 687 W/m² | - |
| 1777634602 | 21.67° C | 38% | 1026.9 hPa | 0 mm | 1.79 m/s, 305° | 687 W/m² | - |
| 1777634542 | 21.67° C | 38% | 1027.1 hPa | 0 mm | 0.89 m/s, 341° | 688 W/m² | - |
| 1777634482 | 21.67° C | 39% | 1027 hPa | 0 mm | 0.45 m/s, 358° | 688 W/m² | - |
| 1777634423 | 21.67° C | 40% | 1026.8 hPa | 0 mm | 0.89 m/s, 347° | 686 W/m² | - |
| 1777634362 | 21.67° C | 39% | 1026.9 hPa | 0 mm | 0.89 m/s, 35° | 688 W/m² | - |
| 1777634302 | 21.67° C | 40% | 1026.7 hPa | 0 mm | 0.89 m/s, 346° | 687 W/m² | - |
| 1777634242 | 21.67° C | 39% | 1026.9 hPa | 0 mm | 0.89 m/s, 296° | 688 W/m² | - |
| 1777634183 | 21.67° C | 41% | 1027.2 hPa | 0 mm | 0.45 m/s, 326° | 688 W/m² | - |
| 1777634122 | 21.67° C | 40% | 1027 hPa | 0 mm | 1.79 m/s, 48° | 688 W/m² | - |
| 1777634062 | 21.67° C | 40% | 1026.9 hPa | 0 mm | 1.34 m/s, 326° | 688 W/m² | - |
| 1777634002 | 21.67° C | 39% | 1026.9 hPa | 0 mm | 1.79 m/s, 328° | 689 W/m² | - |
| 1777633942 | 21.67° C | 38% | 1026.9 hPa | 0 mm | 2.24 m/s, 354° | 689 W/m² | - |
| 1777633882 | 21.67° C | 38% | 1026.9 hPa | 0 mm | 1.34 m/s, 4° | 686 W/m² | - |
| 1777633822 | 22.22° C | 38% | 1027 hPa | 0 mm | 1.79 m/s, 5° | 685 W/m² | - |
| 1777633762 | 22.22° C | 38% | 1026.9 hPa | 0 mm | 0.89 m/s, 299° | 684 W/m² | - |
| 1777633702 | 22.22° C | 38% | 1027.3 hPa | 0 mm | 1.79 m/s, 296° | 688 W/m² | - |
| 1777633642 | 22.22° C | 39% | 1027 hPa | 0 mm | 0.45 m/s, 97° | 688 W/m² | - |
| 1777633584 | 22.22° C | 38% | 1027.1 hPa | 0 mm | 1.79 m/s, 328° | 687 W/m² | - |
* Rain latest hour (hover to see other rain measurements)
** Current wind speed in m/s (hover to see current wind gust speed)